CheckWX is a tool to help pilots better visualize weather data.  It is not intended as a substitute for an official pre-flight weather briefing.

10:51:23 UTC

KSOP METAR
Moore County Airport
Pinehurst/Southern Pines, North Carolina, USA
Current

55 mins ago

KSOP 260956Z AUTO 30003KT 10SM CLR M01/M02 A3000 RMK AO2 SLP167 T10111022 FZRANO
Observed
Jan-26 @ 09:56 UTC
Wind
  • 300° at 3 KTS
Visibility
10 SM
Flight Rules
VFR
Cloud Levels
  • Clear skies
Temperature
-1°C / 30°F
Dewpoint
-2°C / 28°F
Humidity
93%
Altimeter
30" Hg
Pressure
1015.92 hPa
Previous

2 hours ago

KSOP 260856Z AUTO 00000KT 10SM CLR 01/M02 A3001 RMK AO2 SLP169 T00061017 50002 FZRANO
Observed
Jan-26 @ 08:56 UTC
Visibility
10 SM
Flight Rules
VFR
Cloud Levels
  • Clear skies
Temperature
C / 34°F
Dewpoint
-2°C / 28°F
Humidity
81%
Altimeter
30.01" Hg
Pressure
1016.22 hPa
Previous

3 hours ago

KSOP 260756Z AUTO 29003KT 10SM CLR 02/M01 A3001 RMK AO2 SLP170 T00171011 FZRANO
Observed
Jan-26 @ 07:56 UTC
Wind
  • 290° at 3 KTS
Visibility
10 SM
Flight Rules
VFR
Cloud Levels
  • Clear skies
Temperature
C / 36°F
Dewpoint
-1°C / 30°F
Humidity
81%
Altimeter
30.01" Hg
Pressure
1016.22 hPa